Terminal Aerodrome Forecast
Issued by NWS

Home | Current Version | Previous Version | Text Only | Print | Product List | Glossary On
Versions: 1 2 3 4 5 6 7 8 9 10 11 12 13 14 15 16 17 18 19
588
FTUS42 KTBW 241141
TAFPGD
TAF
KPGD 241141Z 2412/2512 30007KT P6SM SCT015
     FM241400 29009KT P6SM SCT020
      TEMPO 2414/2417 BKN020
     FM241700 27011G17KT P6SM SCT030
      TEMPO 2417/2419 BKN030
     FM241900 27013G20KT P6SM SCT035
     FM250000 29008KT P6SM SCT030
     FM250300 32005KT P6SM SCT030=

USA.gov is the U.S. government's official web portal to all federal, state and local government web resources and services.